Time;durP1;ratioP1;P1;durP2;ratioP2;P2;SDS_P1;SDS_P2;PMS_P1;PMS_P2;Temp;Humidity;BMP_temperature;BMP_pressure;BME280_temperature;BME280_humidity;BME280_pressure;Samples;Min_cycle;Max_cycle;Signal;HPM_P1;HPM_P2
2022/04/03 00:02:18;;;;;;;3.80;1.10;;;;;;;;;;5085845;28;20079;-62
2022/04/03 00:04:44;;;;;;;5.40;1.60;;;;;;;;;;5069146;28;20617;-62
2022/04/03 00:07:11;;;;;;;2.85;1.17;;;;;;;;;;5068794;28;20048;-63
2022/04/03 00:09:37;;;;;;;3.65;1.02;;;;;;;;;;5068501;28;20389;-63
2022/04/03 00:12:03;;;;;;;4.13;1.33;;;;;;;;;;5069708;28;20032;-61
2022/04/03 00:14:29;;;;;;;3.88;1.48;;;;;;;;;;5069996;28;20043;-63
2022/04/03 00:16:55;;;;;;;3.45;1.20;;;;;;;;;;5051980;28;20430;-63
2022/04/03 00:19:22;;;;;;;3.63;1.48;;;;;;;;;;5068273;28;20048;-62
2022/04/03 00:21:49;;;;;;;3.50;1.40;;;;;;;;;;5069019;28;20036;-62
2022/04/03 00:24:15;;;;;;;4.80;1.52;;;;;;;;;;5068641;28;20113;-62
2022/04/03 00:26:41;;;;;;;1.85;1.15;;;;;;;;;;5069315;28;20434;-62
2022/04/03 00:29:07;;;;;;;3.50;1.50;;;;;;;;;;5069206;28;20421;-63
2022/04/03 00:31:35;;;;;;;3.88;1.10;;;;;;;;;;5068687;28;20041;-62
2022/04/03 00:34:02;;;;;;;5.45;1.33;;;;;;;;;;5068595;28;20525;-64
2022/04/03 00:36:28;;;;;;;3.08;1.50;;;;;;;;;;5068475;28;20036;-63
2022/04/03 00:38:55;;;;;;;3.65;1.67;;;;;;;;;;5057890;28;20066;-62
2022/04/03 00:41:22;;;;;;;4.15;1.90;;;;;;;;;;5068271;28;20072;-62
2022/04/03 00:43:48;;;;;;;4.15;1.67;;;;;;;;;;5068101;28;20040;-62
2022/04/03 00:46:16;;;;;;;4.05;2.00;;;;;;;;;;5068107;28;20079;-62
2022/04/03 00:48:42;;;;;;;3.88;2.05;;;;;;;;;;5048933;28;20090;-62
2022/04/03 00:51:08;;;;;;;3.28;2.22;;;;;;;;;;5069045;28;20069;-63
2022/04/03 00:53:34;;;;;;;4.10;2.35;;;;;;;;;;5069000;28;20059;-62
2022/04/03 00:56:00;;;;;;;4.55;2.10;;;;;;;;;;5067655;28;20449;-63
2022/04/03 00:58:26;;;;;;;3.25;2.10;;;;;;;;;;5067491;28;20048;-63
2022/04/03 01:00:52;;;;;;;4.78;2.58;;;;;;;;;;5084914;28;20486;-62
2022/04/03 01:03:19;;;;;;;5.60;2.58;;;;;;;;;;5067726;28;20048;-62
2022/04/03 01:05:45;;;;;;;3.95;2.30;;;;;;;;;;5067582;28;20503;-62
2022/04/03 01:08:11;;;;;;;3.85;2.28;;;;;;;;;;5067926;28;20036;-62
2022/04/03 01:10:37;;;;;;;3.83;2.40;;;;;;;;;;5067004;28;20033;-62
2022/04/03 01:13:03;;;;;;;4.63;2.45;;;;;;;;;;5065004;28;20033;-62
2022/04/03 01:15:29;;;;;;;4.45;2.63;;;;;;;;;;5066999;28;20041;-62
2022/04/03 01:17:55;;;;;;;5.85;3.03;;;;;;;;;;5066596;28;20543;-62
2022/04/03 01:20:21;;;;;;;6.10;3.17;;;;;;;;;;5049489;28;20391;-62
2022/04/03 01:22:47;;;;;;;3.80;2.65;;;;;;;;;;5067910;28;20478;-63
2022/04/03 01:25:14;;;;;;;6.35;3.20;;;;;;;;;;5067696;28;20120;-62
2022/04/03 01:27:40;;;;;;;4.68;2.33;;;;;;;;;;5067863;28;20078;-62
2022/04/03 01:30:07;;;;;;;4.22;2.53;;;;;;;;;;5067527;28;20517;-62
2022/04/03 01:32:33;;;;;;;4.60;2.80;;;;;;;;;;5067329;28;20033;-60
2022/04/03 01:34:59;;;;;;;3.55;1.83;;;;;;;;;;5066461;28;20037;-61
2022/04/03 01:37:25;;;;;;;7.03;2.70;;;;;;;;;;5066123;28;20130;-61
2022/04/03 01:39:51;;;;;;;5.57;2.20;;;;;;;;;;5066312;28;20040;-62
2022/04/03 01:42:17;;;;;;;6.18;2.58;;;;;;;;;;5065920;28;20063;-62
2022/04/03 01:44:43;;;;;;;3.83;2.10;;;;;;;;;;5067672;28;20111;-62
2022/04/03 01:47:10;;;;;;;4.55;2.10;;;;;;;;;;5066666;28;20067;-63
2022/04/03 01:49:36;;;;;;;5.18;2.22;;;;;;;;;;5065560;28;20060;-63
2022/04/03 01:52:02;;;;;;;2.78;2.10;;;;;;;;;;5065757;28;20083;-62
2022/04/03 01:54:28;;;;;;;3.80;2.20;;;;;;;;;;5065599;28;20060;-61
2022/04/03 01:56:54;;;;;;;4.80;2.15;;;;;;;;;;5066017;28;20064;-62
2022/04/03 01:59:21;;;;;;;4.50;1.65;;;;;;;;;;5065764;28;20047;-62
2022/04/03 02:01:47;;;;;;;4.78;1.83;;;;;;;;;;5067187;28;20436;-61
2022/04/03 02:04:13;;;;;;;4.93;2.03;;;;;;;;;;5048904;28;20040;-62
2022/04/03 02:06:40;;;;;;;4.75;1.75;;;;;;;;;;5069640;28;20028;-61
2022/04/03 02:09:08;;;;;;;4.50;1.95;;;;;;;;;;5067443;28;20080;-62
2022/04/03 02:11:34;;;;;;;3.67;1.77;;;;;;;;;;5069843;28;20040;-60
2022/04/03 02:14:01;;;;;;;3.75;1.80;;;;;;;;;;5051403;28;20497;-60
2022/04/03 02:16:27;;;;;;;6.55;2.20;;;;;;;;;;5067708;28;20409;-62
2022/04/03 02:18:53;;;;;;;4.57;2.25;;;;;;;;;;5051160;28;20083;-61
2022/04/03 02:21:19;;;;;;;3.80;1.98;;;;;;;;;;5067642;28;20044;-61
2022/04/03 02:23:45;;;;;;;7.30;2.28;;;;;;;;;;5069419;28;20056;-63
2022/04/03 02:26:11;;;;;;;3.17;1.80;;;;;;;;;;5066819;28;20032;-61
2022/04/03 02:28:39;;;;;;;2.80;2.00;;;;;;;;;;5066871;28;20444;-61
2022/04/03 02:31:05;;;;;;;5.97;1.50;;;;;;;;;;5066931;28;20094;-62
2022/04/03 02:33:31;;;;;;;4.10;1.65;;;;;;;;;;5067089;28;20079;-61
2022/04/03 02:35:57;;;;;;;3.03;1.40;;;;;;;;;;5065179;28;20067;-61
2022/04/03 02:38:23;;;;;;;3.72;0.70;;;;;;;;;;5066465;28;20037;-62
2022/04/03 02:40:49;;;;;;;3.78;0.80;;;;;;;;;;5047256;28;20108;-61
2022/04/03 02:43:15;;;;;;;2.63;0.50;;;;;;;;;;5066901;28;20048;-63
2022/04/03 02:45:42;;;;;;;0.98;0.30;;;;;;;;;;5068294;28;20508;-62
2022/04/03 02:48:08;;;;;;;1.52;0.30;;;;;;;;;;5067594;28;20040;-60
2022/04/03 02:50:34;;;;;;;3.38;0.20;;;;;;;;;;5068867;28;20032;-60
2022/04/03 02:53:00;;;;;;;3.65;0.20;;;;;;;;;;5067284;28;20056;-60
2022/04/03 02:55:26;;;;;;;0.63;0.10;;;;;;;;;;5066877;28;20075;-61
2022/04/03 02:57:53;;;;;;;1.63;0.20;;;;;;;;;;5069364;28;20036;-61
2022/04/03 03:00:20;;;;;;;1.42;0.30;;;;;;;;;;5067939;28;20033;-61
2022/04/03 03:02:51;;;;;;;3.47;0.40;;;;;;;;;;5068051;28;20352;-60
2022/04/03 03:05:17;;;;;;;2.78;0.20;;;;;;;;;;5066991;28;20110;-60
2022/04/03 03:07:48;;;;;;;2.85;0.40;;;;;;;;;;5069056;28;20094;-60
2022/04/03 03:10:21;;;;;;;2.78;0.20;;;;;;;;;;5066604;28;20051;-61
2022/04/03 03:12:48;;;;;;;1.05;0.20;;;;;;;;;;5069001;28;20516;-60
2022/04/03 03:15:14;;;;;;;2.03;0.30;;;;;;;;;;5049750;28;20037;-60
2022/04/03 03:17:43;;;;;;;0.98;0.10;;;;;;;;;;5072641;28;20124;-62
2022/04/03 03:20:10;;;;;;;2.63;0.30;;;;;;;;;;5069004;28;20068;-62
2022/04/03 03:22:36;;;;;;;2.28;0.30;;;;;;;;;;5085895;28;20124;-61
2022/04/03 03:25:05;;;;;;;2.90;0.30;;;;;;;;;;5069945;28;20041;-63
2022/04/03 03:27:31;;;;;;;3.15;0.32;;;;;;;;;;5070044;28;20048;-63
2022/04/03 03:29:57;;;;;;;2.28;0.28;;;;;;;;;;5066601;28;20124;-62
2022/04/03 03:32:26;;;;;;;2.42;0.30;;;;;;;;;;5068960;28;20044;-62
2022/04/03 03:34:54;;;;;;;3.70;0.30;;;;;;;;;;5085361;28;20447;-62
2022/04/03 03:37:20;;;;;;;1.98;0.30;;;;;;;;;;5051651;28;20109;-62
2022/04/03 03:39:47;;;;;;;4.40;0.30;;;;;;;;;;5068099;28;20052;-62
2022/04/03 03:42:13;;;;;;;2.35;0.28;;;;;;;;;;5069454;28;20040;-63
2022/04/03 03:44:39;;;;;;;2.47;0.30;;;;;;;;;;5070921;28;20053;-62
2022/04/03 03:47:07;;;;;;;2.25;0.30;;;;;;;;;;5069197;28;20127;-60
2022/04/03 03:49:33;;;;;;;2.25;0.30;;;;;;;;;;5071254;28;20045;-61
2022/04/03 03:52:00;;;;;;;3.30;0.30;;;;;;;;;;5053729;28;20041;-60
2022/04/03 03:54:26;;;;;;;3.63;0.82;;;;;;;;;;5071257;28;20060;-61
2022/04/03 03:56:52;;;;;;;3.42;0.50;;;;;;;;;;5071085;28;20048;-60
2022/04/03 03:59:18;;;;;;;3.53;0.55;;;;;;;;;;5070414;28;20048;-60
2022/04/03 04:01:44;;;;;;;2.35;0.40;;;;;;;;;;5071479;28;20498;-60
2022/04/03 04:04:10;;;;;;;3.35;0.60;;;;;;;;;;5070994;28;20498;-61
2022/04/03 04:06:36;;;;;;;2.15;0.52;;;;;;;;;;5070102;28;20455;-60
2022/04/03 04:09:03;;;;;;;2.05;0.45;;;;;;;;;;5071356;28;20028;-61
2022/04/03 04:11:29;;;;;;;2.20;0.57;;;;;;;;;;5069581;28;20048;-61
2022/04/03 04:13:55;;;;;;;1.65;0.30;;;;;;;;;;5068936;28;20044;-63
2022/04/03 04:16:21;;;;;;;1.98;0.50;;;;;;;;;;5068554;28;20048;-63
2022/04/03 04:18:48;;;;;;;1.73;0.40;;;;;;;;;;5050114;28;20402;-62
2022/04/03 04:21:15;;;;;;;2.40;0.50;;;;;;;;;;5068063;28;20265;-60
2022/04/03 04:23:41;;;;;;;3.22;0.50;;;;;;;;;;5069291;28;20102;-62
2022/04/03 04:26:07;;;;;;;3.50;0.60;;;;;;;;;;5068252;28;20425;-63
2022/04/03 04:28:34;;;;;;;4.10;1.00;;;;;;;;;;5084154;28;20046;-61
2022/04/03 04:31:00;;;;;;;4.00;1.10;;;;;;;;;;5067947;28;20037;-62
2022/04/03 04:33:26;;;;;;;4.32;1.00;;;;;;;;;;5068556;28;20076;-61
2022/04/03 04:35:52;;;;;;;4.35;1.17;;;;;;;;;;5067877;28;20040;-63
2022/04/03 04:38:19;;;;;;;4.57;1.20;;;;;;;;;;5067378;28;20097;-62
2022/04/03 04:40:45;;;;;;;5.68;1.20;;;;;;;;;;5067750;28;20083;-62
2022/04/03 04:43:11;;;;;;;5.78;1.40;;;;;;;;;;5050528;28;20051;-62
2022/04/03 04:45:38;;;;;;;3.60;1.00;;;;;;;;;;5068238;28;20040;-64
2022/04/03 04:48:04;;;;;;;6.30;1.23;;;;;;;;;;5067441;28;20506;-62
2022/04/03 04:50:31;;;;;;;4.10;1.00;;;;;;;;;;5048162;28;20475;-63
2022/04/03 04:52:57;;;;;;;1.85;0.90;;;;;;;;;;5049968;28;20052;-62
2022/04/03 04:55:24;;;;;;;6.60;1.60;;;;;;;;;;5067609;28;20460;-62
2022/04/03 04:57:51;;;;;;;4.85;1.33;;;;;;;;;;5068370;28;20036;-61
2022/04/03 05:00:17;;;;;;;2.72;0.90;;;;;;;;;;5067043;28;20083;-63
2022/04/03 05:02:46;;;;;;;2.60;0.77;;;;;;;;;;5069940;28;20066;-60
2022/04/03 05:05:13;;;;;;;2.45;1.10;;;;;;;;;;5067139;28;20048;-62
2022/04/03 05:07:39;;;;;;;3.75;0.90;;;;;;;;;;5066909;28;20423;-62
2022/04/03 05:10:06;;;;;;;2.78;1.00;;;;;;;;;;5068291;28;20051;-62
2022/04/03 05:12:32;;;;;;;4.05;1.23;;;;;;;;;;5068024;28;20486;-62
2022/04/03 05:14:59;;;;;;;4.22;0.98;;;;;;;;;;5068387;28;20115;-61
2022/04/03 05:17:26;;;;;;;2.70;0.80;;;;;;;;;;5066725;28;20046;-62
2022/04/03 05:19:53;;;;;;;2.63;0.88;;;;;;;;;;5066835;28;20084;-62
2022/04/03 05:22:23;;;;;;;4.55;1.20;;;;;;;;;;5067763;28;20048;-62
2022/04/03 05:24:49;;;;;;;4.55;1.20;;;;;;;;;;5066387;28;20411;-62
2022/04/03 05:27:15;;;;;;;5.22;1.42;;;;;;;;;;5069189;28;20037;-63
2022/04/03 05:29:41;;;;;;;5.85;1.10;;;;;;;;;;5083049;28;20127;-62
2022/04/03 05:32:08;;;;;;;3.35;0.85;;;;;;;;;;5066436;28;20040;-63
2022/04/03 05:34:34;;;;;;;2.78;1.10;;;;;;;;;;5067712;28;20111;-62
2022/04/03 05:37:01;;;;;;;3.47;1.17;;;;;;;;;;5066520;28;20047;-62
2022/04/03 05:39:27;;;;;;;3.55;1.23;;;;;;;;;;5066407;28;20048;-62
2022/04/03 05:41:55;;;;;;;3.42;1.10;;;;;;;;;;5069399;28;20060;-61
2022/04/03 05:44:22;;;;;;;3.70;1.13;;;;;;;;;;5068858;28;20107;-62
2022/04/03 05:46:49;;;;;;;3.45;1.17;;;;;;;;;;5067313;28;20098;-63
2022/04/03 05:49:15;;;;;;;5.80;1.45;;;;;;;;;;5066976;28;20040;-62
2022/04/03 05:51:42;;;;;;;3.78;1.73;;;;;;;;;;5066908;28;20044;-62
2022/04/03 05:54:08;;;;;;;2.47;1.15;;;;;;;;;;5066337;28;20048;-63
2022/04/03 05:56:34;;;;;;;6.95;1.67;;;;;;;;;;5066698;28;20502;-62
2022/04/03 05:59:01;;;;;;;3.33;1.25;;;;;;;;;;5066222;28;20120;-63
2022/04/03 06:01:27;;;;;;;4.05;1.40;;;;;;;;;;5068429;28;20044;-62
2022/04/03 06:03:53;;;;;;;6.25;1.00;;;;;;;;;;5066951;28;20083;-62
2022/04/03 06:06:19;;;;;;;5.32;1.30;;;;;;;;;;5066296;28;20137;-63
2022/04/03 06:08:45;;;;;;;5.22;0.98;;;;;;;;;;5068142;28;20488;-63
2022/04/03 06:11:12;;;;;;;2.22;0.70;;;;;;;;;;5066834;28;20036;-62
2022/04/03 06:13:38;;;;;;;2.83;0.98;;;;;;;;;;5049818;28;20040;-64
2022/04/03 06:16:04;;;;;;;3.78;0.82;;;;;;;;;;5049593;28;20047;-63
2022/04/03 06:18:30;;;;;;;4.93;1.40;;;;;;;;;;5067003;28;20040;-63
2022/04/03 06:20:56;;;;;;;2.05;0.95;;;;;;;;;;5046693;28;20048;-63
2022/04/03 06:23:23;;;;;;;1.85;0.75;;;;;;;;;;5064679;28;20077;-62
2022/04/03 06:25:52;;;;;;;4.18;0.60;;;;;;;;;;5065322;28;20064;-63
2022/04/03 06:28:19;;;;;;;3.33;0.60;;;;;;;;;;5065711;28;20402;-62
2022/04/03 06:30:46;;;;;;;3.72;0.57;;;;;;;;;;5066757;28;20465;-64
2022/04/03 06:33:12;;;;;;;5.63;0.60;;;;;;;;;;5067254;28;20112;-64
2022/04/03 06:35:38;;;;;;;5.15;0.60;;;;;;;;;;5067620;28;20045;-63
2022/04/03 06:38:04;;;;;;;4.50;0.40;;;;;;;;;;5065587;28;20036;-63
2022/04/03 06:40:34;;;;;;;3.45;0.60;;;;;;;;;;5064904;28;20131;-62
2022/04/03 06:43:00;;;;;;;3.22;0.47;;;;;;;;;;5067355;28;20475;-63
2022/04/03 06:45:26;;;;;;;4.57;0.55;;;;;;;;;;5067225;28;20910;-64
2022/04/03 06:47:53;;;;;;;2.67;0.60;;;;;;;;;;5065414;28;20120;-63
2022/04/03 06:50:20;;;;;;;2.80;0.57;;;;;;;;;;5066252;28;20033;-62
2022/04/03 06:52:46;;;;;;;2.22;0.47;;;;;;;;;;5070274;28;20402;-62
2022/04/03 06:55:12;;;;;;;4.85;0.40;;;;;;;;;;5069504;28;20063;-64
2022/04/03 06:57:39;;;;;;;3.35;0.50;;;;;;;;;;5071343;28;20047;-64
2022/04/03 07:00:06;;;;;;;2.67;0.40;;;;;;;;;;5070780;28;20044;-62
2022/04/03 07:02:33;;;;;;;3.60;0.50;;;;;;;;;;5068657;28;20088;-62
2022/04/03 07:04:59;;;;;;;6.03;0.60;;;;;;;;;;5069856;28;20442;-62
2022/04/03 07:07:25;;;;;;;2.13;0.60;;;;;;;;;;5071783;28;20048;-61
2022/04/03 07:09:52;;;;;;;2.38;0.60;;;;;;;;;;5069678;28;20079;-62
2022/04/03 07:12:18;;;;;;;2.50;0.77;;;;;;;;;;5070906;28;20072;-61
2022/04/03 07:14:45;;;;;;;5.15;0.60;;;;;;;;;;5071423;28;20130;-60
2022/04/03 07:17:11;;;;;;;4.93;0.73;;;;;;;;;;5069633;28;20044;-61
2022/04/03 07:19:37;;;;;;;4.28;0.77;;;;;;;;;;5067541;28;20037;-61
2022/04/03 07:22:03;;;;;;;5.60;1.10;;;;;;;;;;5069427;28;20041;-61
2022/04/03 07:24:30;;;;;;;9.07;1.05;;;;;;;;;;5069929;28;20056;-62
2022/04/03 07:26:56;;;;;;;3.83;0.80;;;;;;;;;;5067588;28;20079;-61
2022/04/03 07:29:23;;;;;;;4.90;0.70;;;;;;;;;;5068450;28;20045;-62
2022/04/03 07:31:49;;;;;;;6.25;0.93;;;;;;;;;;5068779;28;20044;-62
2022/04/03 07:34:15;;;;;;;6.22;1.00;;;;;;;;;;5075596;28;21319;-62
2022/04/03 07:36:41;;;;;;;8.98;1.00;;;;;;;;;;5067941;28;20044;-63
2022/04/03 07:39:09;;;;;;;6.03;0.90;;;;;;;;;;5070555;28;20037;-62
2022/04/03 07:41:35;;;;;;;4.05;0.68;;;;;;;;;;5051850;28;21258;-62
2022/04/03 07:44:01;;;;;;;5.80;0.65;;;;;;;;;;5070113;28;20048;-62
2022/04/03 07:46:28;;;;;;;6.60;0.60;;;;;;;;;;5068297;28;20127;-62
2022/04/03 07:48:54;;;;;;;3.63;0.85;;;;;;;;;;5068419;28;20032;-63
2022/04/03 07:51:20;;;;;;;5.22;0.50;;;;;;;;;;5068497;28;20115;-63
2022/04/03 07:53:47;;;;;;;4.45;0.40;;;;;;;;;;5064383;28;20048;-62
2022/04/03 07:56:13;;;;;;;3.75;0.30;;;;;;;;;;5052939;28;20055;-62
2022/04/03 07:58:39;;;;;;;3.85;0.28;;;;;;;;;;5067598;28;20469;-63
2022/04/03 08:01:05;;;;;;;3.38;0.20;;;;;;;;;;5069863;28;20057;-64
2022/04/03 08:03:31;;;;;;;2.00;0.20;;;;;;;;;;5085874;28;20045;-63
2022/04/03 08:05:57;;;;;;;3.33;0.30;;;;;;;;;;5070493;28;20047;-63
2022/04/03 08:08:24;;;;;;;2.83;0.17;;;;;;;;;;5069926;28;20048;-63
2022/04/03 08:10:50;;;;;;;3.05;0.30;;;;;;;;;;5072195;28;20047;-64
2022/04/03 08:13:16;;;;;;;1.95;0.30;;;;;;;;;;5071011;28;20123;-64
2022/04/03 08:15:42;;;;;;;6.57;0.30;;;;;;;;;;5070984;28;20375;-62
2022/04/03 08:18:08;;;;;;;6.65;0.30;;;;;;;;;;5071259;28;20064;-63
2022/04/03 08:20:35;;;;;;;4.40;0.25;;;;;;;;;;5070211;28;20512;-63
2022/04/03 08:23:03;;;;;;;3.05;0.10;;;;;;;;;;5067831;28;20674;-64
2022/04/03 08:25:33;;;;;;;4.90;0.40;;;;;;;;;;5066304;28;20071;-63
2022/04/03 08:28:02;;;;;;;2.85;0.30;;;;;;;;;;5068906;28;20111;-64
2022/04/03 08:30:34;;;;;;;5.20;0.30;;;;;;;;;;5069141;28;20040;-64
2022/04/03 08:33:03;;;;;;;4.63;0.30;;;;;;;;;;5067165;28;20036;-64
2022/04/03 08:35:37;;;;;;;1.95;0.20;;;;;;;;;;5068089;28;21339;-61
2022/04/03 08:38:04;;;;;;;4.18;0.20;;;;;;;;;;5065634;28;20079;-63
2022/04/03 08:40:31;;;;;;;3.50;0.30;;;;;;;;;;5068127;28;20049;-63
2022/04/03 08:42:58;;;;;;;4.50;0.40;;;;;;;;;;5050233;28;20048;-64
2022/04/03 08:45:24;;;;;;;5.53;0.30;;;;;;;;;;5066679;28;20505;-63
2022/04/03 08:47:56;;;;;;;6.28;0.30;;;;;;;;;;5048959;28;20129;-63
2022/04/03 08:50:33;;;;;;;4.18;0.50;;;;;;;;;;5067474;28;21745;-63
2022/04/03 08:53:01;;;;;;;3.20;0.30;;;;;;;;;;5066545;28;20110;-63
2022/04/03 08:55:28;;;;;;;2.78;0.20;;;;;;;;;;5049757;28;20184;-63
2022/04/03 08:57:55;;;;;;;2.95;0.20;;;;;;;;;;5066254;28;20511;-62
2022/04/03 09:00:24;;;;;;;4.72;0.38;;;;;;;;;;5049531;28;20048;-64
2022/04/03 09:02:50;;;;;;;3.40;0.30;;;;;;;;;;5067195;28;20396;-63
2022/04/03 09:05:17;;;;;;;4.32;0.20;;;;;;;;;;5084718;28;20044;-62
2022/04/03 09:07:43;;;;;;;3.72;0.30;;;;;;;;;;5049715;28;20124;-63
2022/04/03 09:10:10;;;;;;;2.47;0.20;;;;;;;;;;5070198;28;20075;-64
2022/04/03 09:12:43;;;;;;;2.72;0.10;;;;;;;;;;5068071;28;20454;-63
2022/04/03 09:15:14;;;;;;;3.03;0.10;;;;;;;;;;5070106;28;20047;-64
2022/04/03 09:17:44;;;;;;;1.73;0.20;;;;;;;;;;5068310;28;20109;-64
2022/04/03 09:20:15;;;;;;;2.47;0.20;;;;;;;;;;5046439;28;20041;-64
2022/04/03 09:22:42;;;;;;;4.43;0.30;;;;;;;;;;5068009;28;20078;-64
2022/04/03 09:25:12;;;;;;;5.13;0.28;;;;;;;;;;5051133;28;20036;-61
2022/04/03 09:27:46;;;;;;;5.07;0.38;;;;;;;;;;5049630;28;20037;-61
2022/04/03 09:30:12;;;;;;;4.00;0.30;;;;;;;;;;5069598;28;20039;-63
2022/04/03 09:32:49;;;;;;;3.60;0.30;;;;;;;;;;5066798;28;20032;-61
2022/04/03 09:35:16;;;;;;;3.08;0.20;;;;;;;;;;5067570;28;20040;-61
2022/04/03 09:38:02;;;;;;;2.28;0.20;;;;;;;;;;5067454;28;20095;-62
2022/04/03 09:40:32;;;;;;;2.97;0.20;;;;;;;;;;5067797;28;20040;-62
2022/04/03 09:43:11;;;;;;;3.33;0.20;;;;;;;;;;5049122;28;20048;-62
2022/04/03 09:45:43;;;;;;;4.28;0.20;;;;;;;;;;5068714;28;20243;-62
2022/04/03 09:48:27;;;;;;;1.27;0.13;;;;;;;;;;5066765;28;20059;-61
2022/04/03 09:51:06;;;;;;;4.85;0.40;;;;;;;;;;5068194;28;20790;-63
2022/04/03 09:53:41;;;;;;;4.07;0.32;;;;;;;;;;5049656;28;20053;-62
2022/04/03 09:56:08;;;;;;;2.08;0.13;;;;;;;;;;5065892;28;20500;-61
2022/04/03 09:58:52;;;;;;;3.90;0.30;;;;;;;;;;5067358;28;20342;-64
2022/04/03 10:01:30;;;;;;;3.20;0.20;;;;;;;;;;5064964;28;20048;-64
2022/04/03 10:03:57;;;;;;;3.53;0.20;;;;;;;;;;5068012;28;20126;-63
2022/04/03 10:06:24;;;;;;;4.40;0.20;;;;;;;;;;5064906;28;20040;-62
2022/04/03 10:08:50;;;;;;;2.80;0.20;;;;;;;;;;5066051;28;20098;-63
2022/04/03 10:11:16;;;;;;;4.93;0.40;;;;;;;;;;5081580;28;20040;-63
2022/04/03 10:13:45;;;;;;;4.10;0.30;;;;;;;;;;5066424;28;20086;-65
2022/04/03 10:16:12;;;;;;;5.28;0.30;;;;;;;;;;5064947;28;20570;-62
2022/04/03 10:18:39;;;;;;;3.05;0.20;;;;;;;;;;5047954;28;20048;-61
2022/04/03 10:21:07;;;;;;;4.57;0.25;;;;;;;;;;5048465;28;20398;-65
2022/04/03 10:23:34;;;;;;;3.15;0.40;;;;;;;;;;5065090;28;20048;-63
2022/04/03 10:26:02;;;;;;;1.88;0.20;;;;;;;;;;5063126;28;20053;-63
2022/04/03 10:28:28;;;;;;;1.77;0.28;;;;;;;;;;5065628;28;20040;-62
2022/04/03 10:31:06;;;;;;;4.90;0.30;;;;;;;;;;5064388;28;20040;-63
2022/04/03 10:33:37;;;;;;;4.22;0.30;;;;;;;;;;5063287;28;20041;-63
2022/04/03 10:36:04;;;;;;;3.58;0.50;;;;;;;;;;5063575;28;20039;-62
2022/04/03 10:38:38;;;;;;;2.10;0.30;;;;;;;;;;5062636;28;20499;-63
2022/04/03 10:41:06;;;;;;;2.72;0.20;;;;;;;;;;5064687;28;20037;-63
2022/04/03 10:43:37;;;;;;;3.55;0.28;;;;;;;;;;5046697;28;20405;-63
2022/04/03 10:46:03;;;;;;;2.65;0.20;;;;;;;;;;5063082;28;20028;-63
2022/04/03 10:48:30;;;;;;;3.45;0.20;;;;;;;;;;5064913;28;20044;-63
2022/04/03 10:50:58;;;;;;;3.65;0.20;;;;;;;;;;5081261;28;20110;-64
2022/04/03 10:53:25;;;;;;;2.67;0.10;;;;;;;;;;5062620;28;20052;-64
2022/04/03 10:55:55;;;;;;;2.92;0.10;;;;;;;;;;5044886;28;20127;-64
2022/04/03 10:58:22;;;;;;;3.60;0.20;;;;;;;;;;5064675;28;20044;-63
2022/04/03 11:00:49;;;;;;;3.90;0.60;;;;;;;;;;5065972;28;20032;-64
2022/04/03 11:03:15;;;;;;;4.00;0.20;;;;;;;;;;5063893;28;20128;-63
2022/04/03 11:05:43;;;;;;;5.22;0.20;;;;;;;;;;5063572;28;20076;-64
2022/04/03 11:08:09;;;;;;;3.70;0.40;;;;;;;;;;5081206;28;20052;-63
2022/04/03 11:10:54;;;;;;;4.68;0.30;;;;;;;;;;5065204;28;20123;-64
2022/04/03 11:13:23;;;;;;;1.90;0.20;;;;;;;;;;5065760;28;20044;-62
2022/04/03 11:16:10;;;;;;;4.65;0.20;;;;;;;;;;5063493;28;20442;-65
2022/04/03 11:18:47;;;;;;;4.05;0.20;;;;;;;;;;5063355;28;20433;-63
2022/04/03 11:21:13;;;;;;;4.63;0.20;;;;;;;;;;5063052;28;20423;-64
2022/04/03 11:23:58;;;;;;;2.78;0.20;;;;;;;;;;5062903;28;20048;-63
2022/04/03 11:26:24;;;;;;;3.80;0.20;;;;;;;;;;5062851;28;20036;-64
2022/04/03 11:28:50;;;;;;;3.42;0.20;;;;;;;;;;5062155;28;20071;-62
2022/04/03 11:31:17;;;;;;;2.60;0.20;;;;;;;;;;5048405;28;20040;-62
2022/04/03 11:33:43;;;;;;;1.63;0.20;;;;;;;;;;5063096;28;20044;-63
2022/04/03 11:36:13;;;;;;;1.40;0.10;;;;;;;;;;5061553;28;20044;-64
2022/04/03 11:38:40;;;;;;;2.55;0.15;;;;;;;;;;5065273;28;20052;-63
2022/04/03 11:41:10;;;;;;;1.50;0.30;;;;;;;;;;5066715;28;20462;-64
2022/04/03 11:43:36;;;;;;;2.53;0.30;;;;;;;;;;5066665;28;20044;-64
2022/04/03 11:46:03;;;;;;;3.10;0.30;;;;;;;;;;5069329;28;20032;-63
2022/04/03 11:48:30;;;;;;;2.10;0.20;;;;;;;;;;5069892;28;20033;-63
2022/04/03 11:51:07;;;;;;;1.73;0.10;;;;;;;;;;5067246;28;20375;-63
2022/04/03 11:53:33;;;;;;;2.42;0.10;;;;;;;;;;5067071;28;20041;-63
2022/04/03 11:56:14;;;;;;;1.35;0.10;;;;;;;;;;5067888;28;20086;-62
2022/04/03 11:58:42;;;;;;;2.75;0.10;;;;;;;;;;5067893;28;20037;-63
2022/04/03 12:01:09;;;;;;;3.20;0.55;;;;;;;;;;5066633;28;20066;-63
2022/04/03 12:03:38;;;;;;;1.05;0.10;;;;;;;;;;5069214;28;20068;-64
2022/04/03 12:06:18;;;;;;;1.00;0.10;;;;;;;;;;5069502;28;20041;-63
2022/04/03 12:08:46;;;;;;;1.42;0.30;;;;;;;;;;5067666;28;20036;-62
2022/04/03 12:11:15;;;;;;;0.77;0.10;;;;;;;;;;5067396;28;20040;-63
2022/04/03 12:13:41;;;;;;;1.95;0.10;;;;;;;;;;5067649;28;20037;-62
2022/04/03 12:16:08;;;;;;;1.60;0.10;;;;;;;;;;5067166;28;20048;-63
2022/04/03 12:18:52;;;;;;;3.60;0.20;;;;;;;;;;5050540;28;20044;-63
2022/04/03 12:21:19;;;;;;;3.30;0.52;;;;;;;;;;5074156;28;20051;-63
2022/04/03 12:24:04;;;;;;;1.42;0.10;;;;;;;;;;5066981;28;20079;-62
2022/04/03 12:26:30;;;;;;;2.92;0.10;;;;;;;;;;5065955;28;20554;-64
2022/04/03 12:28:57;;;;;;;2.72;0.10;;;;;;;;;;5077215;28;21709;-64
2022/04/03 12:31:27;;;;;;;3.35;0.40;;;;;;;;;;5050039;28;20452;-63
2022/04/03 12:34:03;;;;;;;1.55;0.20;;;;;;;;;;5068930;28;20608;-62
2022/04/03 12:36:38;;;;;;;3.17;0.15;;;;;;;;;;5067036;28;20044;-62
2022/04/03 12:39:04;;;;;;;3.10;0.20;;;;;;;;;;5068018;28;20566;-61
2022/04/03 12:41:30;;;;;;;2.17;0.20;;;;;;;;;;5068958;28;20044;-63
2022/04/03 12:43:56;;;;;;;3.17;0.25;;;;;;;;;;5050696;28;20028;-64
2022/04/03 12:46:22;;;;;;;3.83;0.28;;;;;;;;;;5067065;28;20457;-63
2022/04/03 12:48:52;;;;;;;3.38;0.20;;;;;;;;;;5059123;28;20056;-64
2022/04/03 12:51:18;;;;;;;1.63;0.10;;;;;;;;;;5066661;28;20552;-63
2022/04/03 12:53:51;;;;;;;3.00;0.20;;;;;;;;;;5046211;28;20052;-64
2022/04/03 12:56:17;;;;;;;2.67;0.20;;;;;;;;;;5062815;28;20041;-64
2022/04/03 12:58:49;;;;;;;3.42;0.20;;;;;;;;;;5067482;28;20089;-64
2022/04/03 13:01:15;;;;;;;2.95;0.17;;;;;;;;;;5049912;28;20045;-64
2022/04/03 13:03:41;;;;;;;2.00;0.10;;;;;;;;;;5065400;28;20064;-63
2022/04/03 13:06:11;;;;;;;2.22;0.10;;;;;;;;;;5065856;28;20394;-63
2022/04/03 13:08:41;;;;;;;2.25;0.10;;;;;;;;;;5067381;28;20501;-64
2022/04/03 13:11:07;;;;;;;2.13;0.10;;;;;;;;;;5065558;28;20149;-65
2022/04/03 13:13:35;;;;;;;2.50;0.20;;;;;;;;;;5067137;28;20089;-63
2022/04/03 13:16:01;;;;;;;2.30;0.10;;;;;;;;;;5066293;28;20101;-64
2022/04/03 13:18:27;;;;;;;2.92;0.20;;;;;;;;;;5068880;28;20114;-63
2022/04/03 13:20:54;;;;;;;3.58;0.40;;;;;;;;;;5065721;28;20040;-63
2022/04/03 13:23:21;;;;;;;0.98;0.10;;;;;;;;;;5067065;28;21338;-63
2022/04/03 13:25:47;;;;;;;2.25;0.20;;;;;;;;;;5064979;28;20040;-64
2022/04/03 13:28:14;;;;;;;2.08;0.10;;;;;;;;;;5066499;28;20036;-62
2022/04/03 13:30:40;;;;;;;0.77;0.10;;;;;;;;;;5062874;28;20045;-65
2022/04/03 13:33:06;;;;;;;0.90;0.10;;;;;;;;;;5046234;28;20040;-63
2022/04/03 13:35:37;;;;;;;2.65;0.20;;;;;;;;;;5045267;28;20079;-64
2022/04/03 13:38:03;;;;;;;1.33;0.17;;;;;;;;;;5066901;28;20048;-63
2022/04/03 13:40:29;;;;;;;1.40;0.10;;;;;;;;;;5064946;28;20059;-63
2022/04/03 13:42:55;;;;;;;1.60;0.10;;;;;;;;;;5066298;28;20131;-62
2022/04/03 13:45:56;;;;;;;2.42;0.10;;;;;;;;;;5067994;28;20047;-61
2022/04/03 13:48:08;;;;;;;4.22;0.20;;;;;;;;;;5082145;28;20040;-61
2022/04/03 13:50:34;;;;;;;2.00;0.10;;;;;;;;;;5067978;28;20033;-61
2022/04/03 13:53:01;;;;;;;1.30;0.15;;;;;;;;;;5066785;28;20052;-62
2022/04/03 13:55:27;;;;;;;1.58;0.10;;;;;;;;;;5064243;28;20719;-63
2022/04/03 13:57:53;;;;;;;3.38;0.30;;;;;;;;;;5064111;28;20050;-62
2022/04/03 14:00:20;;;;;;;3.35;0.20;;;;;;;;;;5066618;28;20400;-62
2022/04/03 14:02:47;;;;;;;3.92;0.20;;;;;;;;;;5066787;28;20105;-62
2022/04/03 14:05:13;;;;;;;3.92;0.20;;;;;;;;;;5065115;28;20040;-61
2022/04/03 14:07:39;;;;;;;2.20;0.20;;;;;;;;;;5080420;28;20044;-62
2022/04/03 14:10:06;;;;;;;1.27;0.20;;;;;;;;;;5051080;28;20481;-64
2022/04/03 14:12:32;;;;;;;4.25;0.32;;;;;;;;;;5064236;28;20065;-66
2022/04/03 14:14:58;;;;;;;3.60;0.40;;;;;;;;;;5047606;28;20520;-63
2022/04/03 14:17:25;;;;;;;4.55;0.30;;;;;;;;;;5062098;28;20041;-63
2022/04/03 14:19:51;;;;;;;3.33;0.30;;;;;;;;;;5063289;28;20036;-62
2022/04/03 14:22:17;;;;;;;2.25;0.40;;;;;;;;;;5066304;28;20044;-64
2022/04/03 14:24:43;;;;;;;3.70;0.60;;;;;;;;;;5064601;28;20045;-63
2022/04/03 14:27:10;;;;;;;6.10;0.40;;;;;;;;;;5065455;28;20036;-62
2022/04/03 14:29:38;;;;;;;3.15;0.50;;;;;;;;;;5066292;28;20042;-63
2022/04/03 14:32:04;;;;;;;2.72;0.40;;;;;;;;;;5082323;28;20413;-62
2022/04/03 14:34:30;;;;;;;2.92;0.45;;;;;;;;;;5079468;28;20040;-63
2022/04/03 14:36:56;;;;;;;4.53;0.40;;;;;;;;;;5066989;28;20041;-64
2022/04/03 14:39:22;;;;;;;2.47;0.30;;;;;;;;;;5063464;28;20059;-63
2022/04/03 14:41:48;;;;;;;3.13;0.28;;;;;;;;;;5065657;28;20085;-63
2022/04/03 14:44:14;;;;;;;4.72;0.40;;;;;;;;;;5064877;28;21492;-62
2022/04/03 14:46:40;;;;;;;4.40;0.50;;;;;;;;;;5064878;28;20036;-63